Time;durP1;ratioP1;P1;durP2;ratioP2;P2;SDS_P1;SDS_P2;PMS_P1;PMS_P2;Temp;Humidity;BMP_temperature;BMP_pressure;BME280_temperature;BME280_humidity;BME280_pressure;Samples;Min_cycle;Max_cycle;Signal;HPM_P1;HPM_P2
2020/12/10 00:01:32;;;;;;;40.92;26.40;;;16.40;65.00;;;;;;5004097;28;20053;-56
2020/12/10 00:03:58;;;;;;;46.38;29.42;;;16.50;65.60;;;;;;4993462;28;20490;-55
2020/12/10 00:06:23;;;;;;;45.00;26.63;;;16.60;65.40;;;;;;5002962;28;20077;-55
2020/12/10 00:09:09;;;;;;;42.85;28.60;;;16.70;65.40;;;;;;4989364;28;20554;-54
2020/12/10 00:11:35;;;;;;;49.65;30.85;;;16.70;65.30;;;;;;5004812;28;20128;-54
2020/12/10 00:14:21;;;;;;;49.90;29.85;;;16.90;64.50;;;;;;4988037;28;20066;-56
2020/12/10 00:16:50;;;;;;;39.33;25.02;;;16.90;64.50;;;;;;5005590;28;20077;-57
2020/12/10 00:19:36;;;;;;;43.08;26.73;;;17.00;64.90;;;;;;4992436;28;20050;-56
2020/12/10 00:22:22;;;;;;;49.67;32.00;;;17.10;64.80;;;;;;4985208;28;20050;-57
2020/12/10 00:25:08;;;;;;;47.60;29.20;;;17.20;63.70;;;;;;4987901;28;20077;-55
2020/12/10 00:27:34;;;;;;;48.90;33.15;;;17.20;63.30;;;;;;5003020;28;20482;-52
2020/12/10 00:30:20;;;;;;;48.20;31.05;;;17.30;62.10;;;;;;4986771;28;20140;-50
2020/12/10 00:32:45;;;;;;;46.58;31.02;;;17.30;61.90;;;;;;5002157;28;20079;-51
2020/12/10 00:35:11;;;;;;;46.67;31.63;;;17.20;61.80;;;;;;5002453;28;20104;-50
2020/12/10 00:37:57;;;;;;;45.20;30.48;;;17.10;62.00;;;;;;4988865;28;20054;-51
2020/12/10 00:40:42;;;;;;;49.75;31.90;;;17.10;61.90;;;;;;4986546;28;20649;-53
2020/12/10 00:43:08;;;;;;;43.25;27.80;;;17.00;62.10;;;;;;5006106;28;20148;-50
2020/12/10 00:45:34;;;;;;;41.53;26.65;;;17.00;62.60;;;;;;5000610;28;20073;-50
2020/12/10 00:47:59;;;;;;;38.70;25.00;;;17.00;63.50;;;;;;5002450;28;20487;-48
2020/12/10 00:50:45;;;;;;;40.15;25.17;;;17.10;63.70;;;;;;4984207;28;20051;-47
2020/12/10 00:53:31;;;;;;;45.15;29.48;;;17.20;64.30;;;;;;4987135;28;20054;-53
2020/12/10 00:55:57;;;;;;;42.92;28.50;;;17.20;62.90;;;;;;5000305;28;20103;-48
2020/12/10 00:58:23;;;;;;;44.60;29.65;;;17.20;62.10;;;;;;4999124;28;20100;-48
2020/12/10 01:01:09;;;;;;;46.33;29.92;;;17.30;62.40;;;;;;4985518;28;20061;-52
2020/12/10 01:03:34;;;;;;;35.20;23.70;;;17.40;62.20;;;;;;5004173;28;20054;-51
2020/12/10 01:06:00;;;;;;;43.15;27.98;;;17.40;62.90;;;;;;5000180;28;20073;-49
2020/12/10 01:08:26;;;;;;;45.45;30.67;;;17.50;62.80;;;;;;5001952;28;20046;-52
2020/12/10 01:10:51;;;;;;;42.33;28.35;;;17.50;61.70;;;;;;4999236;28;20513;-51
2020/12/10 01:13:17;;;;;;;42.92;28.40;;;17.60;62.10;;;;;;5003980;28;20090;-49
2020/12/10 01:15:43;;;;;;;41.38;28.90;;;17.60;60.70;;;;;;4988091;28;20463;-48
2020/12/10 01:18:28;;;;;;;47.13;29.95;;;17.60;60.30;;;;;;4989193;28;20485;-54
2020/12/10 01:21:14;;;;;;;38.92;26.40;;;17.60;60.00;;;;;;4991177;28;20108;-54
2020/12/10 01:24:01;;;;;;;39.75;26.55;;;17.50;60.60;;;;;;4990032;28;20042;-55
2020/12/10 01:26:33;;;;;;;42.75;27.67;;;17.40;60.90;;;;;;4957760;28;20129;-48
2020/12/10 01:29:00;;;;;;;41.70;27.15;;;17.40;61.20;;;;;;4988994;28;20045;-52
2020/12/10 01:31:25;;;;;;;44.85;29.70;;;17.30;61.00;;;;;;4991277;28;20145;-49
2020/12/10 01:34:11;;;;;;;44.05;29.50;;;17.20;60.70;;;;;;4992614;28;20486;-49
2020/12/10 01:36:37;;;;;;;46.42;29.25;;;17.10;60.60;;;;;;5007723;28;20057;-47
2020/12/10 01:39:03;;;;;;;42.10;27.20;;;17.00;60.80;;;;;;5006727;28;20069;-50
2020/12/10 01:41:33;;;;;;;46.50;29.02;;;16.90;61.40;;;;;;5008540;28;20042;-47
2020/12/10 01:44:03;;;;;;;40.83;27.30;;;16.80;61.40;;;;;;5005224;28;20402;-53
2020/12/10 01:46:29;;;;;;;43.60;27.02;;;16.70;61.80;;;;;;4990905;28;20050;-52
2020/12/10 01:48:54;;;;;;;45.42;29.38;;;16.70;62.50;;;;;;4991230;28;20077;-54
2020/12/10 01:51:20;;;;;;;40.88;27.48;;;16.70;62.20;;;;;;5008078;28;20054;-56
2020/12/10 01:54:06;;;;;;;42.88;27.80;;;16.70;62.30;;;;;;4991159;28;20112;-55
2020/12/10 01:56:55;;;;;;;45.80;28.00;;;16.70;62.20;;;;;;4992616;28;20132;-56
2020/12/10 01:59:21;;;;;;;48.60;30.55;;;16.60;61.60;;;;;;5005972;28;20046;-50
2020/12/10 02:01:47;;;;;;;46.72;29.92;;;16.60;60.90;;;;;;4985531;28;20042;-52
2020/12/10 02:04:45;;;;;;;43.13;29.17;;;16.50;62.00;;;;;;5006987;28;20053;-54
2020/12/10 02:07:11;;;;;;;46.17;29.40;;;16.50;63.00;;;;;;4962982;28;20132;-51
2020/12/10 02:09:36;;;;;;;42.17;27.80;;;16.40;62.10;;;;;;5002477;28;20046;-50
2020/12/10 02:12:02;;;;;;;42.53;27.60;;;16.30;62.10;;;;;;5006243;28;20124;-53
2020/12/10 02:14:36;;;;;;;65.50;29.08;;;16.30;62.00;;;;;;4990147;28;20498;-51
2020/12/10 02:17:06;;;;;;;46.22;28.80;;;16.30;61.50;;;;;;5010355;28;20046;-55
2020/12/10 02:19:31;;;;;;;42.13;27.33;;;16.30;62.40;;;;;;5010313;28;20410;-54
2020/12/10 02:21:57;;;;;;;52.10;29.92;;;16.20;62.80;;;;;;4991166;28;20173;-56
2020/12/10 02:24:43;;;;;;;43.80;27.90;;;16.20;62.40;;;;;;4995388;28;20049;-56
2020/12/10 02:27:29;;;;;;;50.40;30.27;;;16.20;62.80;;;;;;4982529;28;20506;-54
2020/12/10 02:29:54;;;;;;;52.65;31.38;;;16.20;62.60;;;;;;5011542;28;20056;-53
2020/12/10 02:32:20;;;;;;;51.15;32.67;;;16.20;62.50;;;;;;4990909;28;20042;-54
2020/12/10 02:34:46;;;;;;;54.05;33.00;;;16.10;61.90;;;;;;5008337;28;20072;-53
2020/12/10 02:37:31;;;;;;;54.65;33.17;;;16.10;62.00;;;;;;4997059;28;20544;-54
2020/12/10 02:39:57;;;;;;;53.33;31.20;;;16.10;61.80;;;;;;5011339;28;20037;-49
2020/12/10 02:42:23;;;;;;;55.00;33.17;;;16.00;61.70;;;;;;5012641;28;20049;-51
2020/12/10 02:45:09;;;;;;;54.30;33.67;;;16.00;61.60;;;;;;4982773;28;20081;-53
2020/12/10 02:47:34;;;;;;;56.65;34.00;;;15.90;62.10;;;;;;5009972;28;20075;-51
2020/12/10 02:50:20;;;;;;;56.63;32.30;;;15.90;61.90;;;;;;4997605;28;20453;-48
2020/12/10 02:52:46;;;;;;;50.42;29.75;;;15.90;62.00;;;;;;4993540;28;20050;-49
2020/12/10 02:55:12;;;;;;;57.42;32.83;;;15.80;62.10;;;;;;5011695;28;20656;-49
2020/12/10 02:57:38;;;;;;;57.22;34.05;;;15.80;61.90;;;;;;5006836;28;20494;-50
2020/12/10 03:00:23;;;;;;;55.03;32.78;;;15.70;62.20;;;;;;4968857;28;20575;-53
2020/12/10 03:03:09;;;;;;;54.70;31.35;;;15.70;61.70;;;;;;4990739;28;20077;-52
2020/12/10 03:05:34;;;;;;;53.85;32.58;;;15.60;61.80;;;;;;5007819;28;20139;-49
2020/12/10 03:08:20;;;;;;;51.40;31.95;;;15.60;61.40;;;;;;4996124;28;20088;-55
2020/12/10 03:10:48;;;;;;;47.67;28.95;;;15.60;61.70;;;;;;5011133;28;20042;-49
2020/12/10 03:13:15;;;;;;;54.30;30.67;;;15.50;61.50;;;;;;5009161;28;20046;-55
2020/12/10 03:15:42;;;;;;;44.40;29.15;;;15.50;61.40;;;;;;5007803;28;20421;-52
2020/12/10 03:18:07;;;;;;;50.63;30.17;;;15.40;61.40;;;;;;5005905;28;20137;-47
2020/12/10 03:20:53;;;;;;;55.45;31.83;;;15.40;61.70;;;;;;4992336;28;20072;-53
2020/12/10 03:23:40;;;;;;;48.13;27.23;;;15.40;61.90;;;;;;4995696;28;20049;-53
2020/12/10 03:26:06;;;;;;;51.85;29.58;;;15.30;62.10;;;;;;4993472;28;20504;-50
2020/12/10 03:28:31;;;;;;;48.33;28.55;;;15.30;61.90;;;;;;4991035;28;20049;-47
2020/12/10 03:30:57;;;;;;;48.33;27.60;;;15.40;62.10;;;;;;5011042;28;20054;-47
2020/12/10 03:33:23;;;;;;;50.72;29.48;;;15.40;62.00;;;;;;5009396;28;20416;-47
2020/12/10 03:35:48;;;;;;;47.85;28.88;;;15.40;62.10;;;;;;5010805;28;20046;-46
2020/12/10 03:38:34;;;;;;;45.28;28.50;;;15.50;62.10;;;;;;4994888;28;20124;-48
2020/12/10 03:41:20;;;;;;;50.90;29.38;;;15.50;61.80;;;;;;4989517;28;20038;-46
2020/12/10 03:43:45;;;;;;;52.55;30.55;;;15.60;61.70;;;;;;5007694;28;20049;-48
2020/12/10 03:46:31;;;;;;;57.58;34.03;;;15.60;61.40;;;;;;4987942;28;20048;-46
2020/12/10 03:48:58;;;;;;;62.50;35.53;;;15.60;61.40;;;;;;4988893;28;20073;-46
2020/12/10 03:51:23;;;;;;;62.47;35.63;;;15.60;61.00;;;;;;4978073;28;20564;-51
2020/12/10 03:53:49;;;;;;;64.88;35.72;;;15.60;61.00;;;;;;5009171;28;20130;-47
2020/12/10 03:56:35;;;;;;;63.53;36.60;;;15.60;61.50;;;;;;4995381;28;20057;-49
2020/12/10 03:59:01;;;;;;;63.50;36.13;;;15.50;61.60;;;;;;4990154;28;20045;-48
2020/12/10 04:01:46;;;;;;;58.50;32.70;;;15.50;61.20;;;;;;4995200;28;20399;-47
2020/12/10 04:04:12;;;;;;;63.70;36.88;;;15.50;62.40;;;;;;4991133;28;20118;-49
2020/12/10 04:06:42;;;;;;;67.20;35.33;;;15.40;61.80;;;;;;5010414;28;20037;-48
2020/12/10 04:09:10;;;;;;;60.55;33.25;;;15.50;61.50;;;;;;5011092;28;20121;-46
2020/12/10 04:11:55;;;;;;;57.15;33.70;;;15.50;61.70;;;;;;4992488;28;20054;-52
2020/12/10 04:14:21;;;;;;;60.60;33.40;;;15.40;61.60;;;;;;4990359;28;20462;-49
2020/12/10 04:17:07;;;;;;;59.50;33.58;;;15.50;61.30;;;;;;4990408;28;20054;-53
2020/12/10 04:19:32;;;;;;;60.75;33.03;;;15.50;61.20;;;;;;5010246;28;20578;-58
2020/12/10 04:21:58;;;;;;;63.88;33.03;;;15.40;61.10;;;;;;5009211;28;20054;-57
2020/12/10 04:24:24;;;;;;;61.53;33.22;;;15.40;61.20;;;;;;5009642;28;20046;-57
2020/12/10 04:27:10;;;;;;;55.53;32.95;;;15.40;61.40;;;;;;4996392;28;20041;-57
2020/12/10 04:29:35;;;;;;;64.97;34.50;;;15.40;61.50;;;;;;5011062;28;20486;-57
2020/12/10 04:32:01;;;;;;;59.58;33.20;;;15.30;61.30;;;;;;5005920;28;20414;-54
2020/12/10 04:34:27;;;;;;;67.85;36.33;;;15.30;61.30;;;;;;5006120;28;20053;-54
2020/12/10 04:37:12;;;;;;;59.15;32.72;;;15.30;61.40;;;;;;4992572;28;20057;-58
2020/12/10 04:39:58;;;;;;;63.55;35.72;;;15.30;61.70;;;;;;4995363;28;20049;-55
2020/12/10 04:42:46;;;;;;;62.97;33.70;;;15.20;61.60;;;;;;4994012;28;20145;-58
2020/12/10 04:45:32;;;;;;;55.10;31.10;;;15.20;61.30;;;;;;4994978;28;20057;-54
2020/12/10 04:47:57;;;;;;;56.88;31.60;;;15.20;61.60;;;;;;5008822;28;20042;-53
2020/12/10 04:50:25;;;;;;;55.40;32.35;;;15.20;61.80;;;;;;4990650;28;20497;-51
2020/12/10 04:53:10;;;;;;;58.33;33.53;;;15.20;61.40;;;;;;4994127;28;20485;-53
2020/12/10 04:55:36;;;;;;;58.03;32.78;;;15.20;61.30;;;;;;4991942;28;20038;-56
2020/12/10 04:58:22;;;;;;;63.60;34.28;;;15.10;61.90;;;;;;4977716;28;20069;-58
2020/12/10 05:00:55;;;;;;;59.60;33.53;;;15.10;61.50;;;;;;5007740;28;20104;-59
2020/12/10 05:03:21;;;;;;;58.15;32.30;;;15.10;61.20;;;;;;5003971;28;20042;-58
2020/12/10 05:06:10;;;;;;;55.97;32.53;;;15.00;61.70;;;;;;4978576;28;20461;-55
2020/12/10 05:08:36;;;;;;;53.75;31.95;;;15.10;61.20;;;;;;5003853;28;20041;-57
2020/12/10 05:11:01;;;;;;;56.17;31.05;;;15.10;61.50;;;;;;4992030;28;20042;-56
2020/12/10 05:13:27;;;;;;;52.22;30.27;;;15.10;61.70;;;;;;5008752;28;20078;-54
2020/12/10 05:15:53;;;;;;;52.70;30.08;;;15.10;60.90;;;;;;5010003;28;20469;-57
2020/12/10 05:18:19;;;;;;;54.17;29.50;;;15.10;60.90;;;;;;5004047;28;20042;-57
2020/12/10 05:20:49;;;;;;;53.58;29.90;;;15.10;61.20;;;;;;4975574;28;20073;-56
2020/12/10 05:23:37;;;;;;;50.03;29.15;;;15.10;61.60;;;;;;4990842;28;20050;-57
2020/12/10 05:26:04;;;;;;;53.58;30.67;;;15.20;61.80;;;;;;5006890;28;20045;-56
2020/12/10 05:28:41;;;;;;;54.65;31.00;;;15.20;61.30;;;;;;5005445;28;20532;-57
2020/12/10 05:31:26;;;;;;;50.10;29.63;;;15.20;59.70;;;;;;4977770;28;20061;-55
2020/12/10 05:33:56;;;;;;;57.10;29.90;;;15.20;61.30;;;;;;5006548;28;20050;-57
2020/12/10 05:36:42;;;;;;;50.67;30.38;;;15.20;61.20;;;;;;4980728;28;20057;-53
2020/12/10 05:39:10;;;;;;;51.28;30.17;;;15.20;61.50;;;;;;4990441;28;20085;-54
2020/12/10 05:41:43;;;;;;;53.00;29.17;;;15.20;61.20;;;;;;4992029;28;20120;-58
2020/12/10 05:44:18;;;;;;;49.17;28.75;;;15.20;61.30;;;;;;5007571;28;20049;-58
2020/12/10 05:46:44;;;;;;;49.53;26.98;;;15.20;61.50;;;;;;5007482;28;20483;-57
2020/12/10 05:49:14;;;;;;;57.17;32.90;;;15.20;62.10;;;;;;4991620;28;20069;-54
2020/12/10 05:52:03;;;;;;;50.10;29.20;;;15.20;61.00;;;;;;4997713;28;20063;-49
2020/12/10 05:54:33;;;;;;;50.88;29.45;;;15.30;61.40;;;;;;4994951;28;20041;-47
2020/12/10 05:57:00;;;;;;;49.15;29.42;;;15.30;61.80;;;;;;4988883;28;20041;-49
2020/12/10 05:59:27;;;;;;;45.72;26.98;;;15.30;61.90;;;;;;5009481;28;20100;-46
2020/12/10 06:02:13;;;;;;;47.00;27.92;;;15.30;62.20;;;;;;4982450;28;20054;-48
2020/12/10 06:04:39;;;;;;;47.25;27.98;;;15.50;62.40;;;;;;5010597;28;20498;-46
2020/12/10 06:07:04;;;;;;;49.72;27.75;;;15.60;61.70;;;;;;4979203;28;20050;-47
2020/12/10 06:09:30;;;;;;;49.85;27.75;;;15.60;61.50;;;;;;4991676;28;20084;-50
2020/12/10 06:12:02;;;;;;;47.05;28.40;;;15.80;60.90;;;;;;5008596;28;20042;-50
2020/12/10 06:14:30;;;;;;;43.70;26.05;;;15.80;60.10;;;;;;4992982;28;20050;-53
2020/12/10 06:17:15;;;;;;;44.17;26.42;;;15.80;61.00;;;;;;4982471;28;20049;-51
2020/12/10 06:20:01;;;;;;;42.03;23.70;;;15.90;61.30;;;;;;4983352;28;20537;-51
2020/12/10 06:22:28;;;;;;;49.72;27.60;;;16.00;62.30;;;;;;5012650;28;20184;-54
2020/12/10 06:24:57;;;;;;;47.05;28.88;;;16.00;61.10;;;;;;5009638;28;20180;-52
2020/12/10 06:27:28;;;;;;;48.28;27.13;;;16.10;60.00;;;;;;4991632;28;20173;-51
2020/12/10 06:30:13;;;;;;;49.25;27.83;;;16.10;59.60;;;;;;5012679;28;20042;-52
2020/12/10 06:32:59;;;;;;;49.90;29.13;;;16.10;59.80;;;;;;4994039;28;20120;-52
2020/12/10 06:35:37;;;;;;;44.63;26.50;;;16.10;60.60;;;;;;5009837;28;20609;-53
2020/12/10 06:38:06;;;;;;;47.03;27.23;;;16.10;60.20;;;;;;5008833;28;20050;-50
2020/12/10 06:40:42;;;;;;;45.33;25.77;;;16.10;60.70;;;;;;5011154;28;20153;-50
2020/12/10 06:43:08;;;;;;;45.20;26.92;;;16.20;60.40;;;;;;4993595;28;20096;-52
2020/12/10 06:45:54;;;;;;;39.80;24.88;;;16.30;60.60;;;;;;4996760;28;20478;-49
2020/12/10 06:48:20;;;;;;;41.47;25.15;;;16.40;60.60;;;;;;4994201;28;20074;-50
2020/12/10 06:50:46;;;;;;;44.58;26.30;;;16.40;60.00;;;;;;4991954;28;20474;-53
2020/12/10 06:53:30;;;;;;;45.55;26.08;;;16.40;60.10;;;;;;5009617;28;20043;-48
2020/12/10 06:56:00;;;;;;;40.13;25.08;;;16.40;59.20;;;;;;4992240;28;20050;-50
2020/12/10 06:58:35;;;;;;;41.47;24.15;;;16.40;60.10;;;;;;5006481;28;20042;-50
2020/12/10 07:01:27;;;;;;;46.10;27.38;;;16.40;59.60;;;;;;4993022;28;20046;-52
2020/12/10 07:07:09;;;;;;;44.75;25.95;;;16.60;60.10;;;;;;5006653;28;20486;-51
2020/12/10 07:09:58;;;;;;;42.30;25.27;;;16.70;59.30;;;;;;5007772;28;20049;-51
2020/12/10 07:12:32;;;;;;;33.65;21.23;;;16.70;58.90;;;;;;4991075;28;20121;-52
2020/12/10 07:15:20;;;;;;;32.88;20.52;;;16.80;59.40;;;;;;4991402;28;20053;-49
2020/12/10 07:17:49;;;;;;;32.90;20.20;;;16.80;60.40;;;;;;5007334;28;20065;-49
2020/12/10 07:20:16;;;;;;;33.03;21.52;;;16.90;60.50;;;;;;5005842;28;20046;-49
2020/12/10 07:22:42;;;;;;;36.53;22.50;;;17.00;59.60;;;;;;4991388;28;20467;-50
2020/12/10 07:25:08;;;;;;;32.67;21.55;;;17.00;58.50;;;;;;5005956;28;20042;-48
2020/12/10 07:27:34;;;;;;;33.78;22.08;;;17.00;57.80;;;;;;5002962;28;20049;-55
2020/12/10 07:30:00;;;;;;;37.00;22.17;;;17.10;58.10;;;;;;5008850;28;20042;-47
2020/12/10 07:32:29;;;;;;;39.63;22.20;;;17.00;57.80;;;;;;4986158;28;20077;-54
2020/12/10 07:35:15;;;;;;;33.92;20.83;;;17.00;57.80;;;;;;4981258;28;20112;-55
2020/12/10 07:37:42;;;;;;;38.60;21.20;;;16.90;59.40;;;;;;5002647;28;21058;-53
2020/12/10 07:40:15;;;;;;;33.10;19.92;;;16.90;59.00;;;;;;4989386;28;20053;-51
2020/12/10 07:43:05;;;;;;;35.78;21.83;;;16.90;58.40;;;;;;4988118;28;20042;-54
2020/12/10 07:45:30;;;;;;;36.90;21.45;;;16.80;58.70;;;;;;5004832;28;20535;-57
2020/12/10 07:48:01;;;;;;;38.05;20.85;;;16.80;58.80;;;;;;5002572;28;20057;-49
2020/12/10 07:50:48;;;;;;;34.40;20.42;;;16.80;58.30;;;;;;4992968;28;20046;-56
2020/12/10 07:53:14;;;;;;;36.63;20.85;;;16.90;59.20;;;;;;4991127;28;20132;-52
2020/12/10 07:55:58;;;;;;;36.17;20.80;;;16.90;58.70;;;;;;5005954;28;20054;-53
2020/12/10 07:58:36;;;;;;;32.85;19.52;;;16.90;58.00;;;;;;4989279;28;20049;-51
2020/12/10 08:01:21;;;;;;;32.15;20.42;;;16.90;59.00;;;;;;4994094;28;20465;-55
2020/12/10 08:03:54;;;;;;;33.70;20.33;;;16.90;58.70;;;;;;4987141;28;20050;-57
2020/12/10 08:06:35;;;;;;;36.65;19.92;;;16.80;57.80;;;;;;4993942;28;20049;-57
2020/12/10 08:09:06;;;;;;;35.08;21.45;;;16.80;58.50;;;;;;4987617;28;20068;-57
2020/12/10 08:11:32;;;;;;;37.28;21.48;;;16.80;58.10;;;;;;4983850;28;20146;-58
2020/12/10 08:14:02;;;;;;;34.80;20.85;;;16.70;57.90;;;;;;5002533;28;20670;-58
2020/12/10 08:16:55;;;;;;;36.58;23.15;;;16.70;58.30;;;;;;5002669;28;20049;-51
2020/12/10 08:19:55;;;;;;;37.53;23.17;;;16.60;58.40;;;;;;4991243;28;20065;-56
2020/12/10 08:22:23;;;;;;;40.92;24.45;;;16.60;58.50;;;;;;4992826;28;20490;-57
2020/12/10 08:24:48;;;;;;;35.95;21.63;;;16.60;58.50;;;;;;5006047;28;20096;-60
2020/12/10 08:27:34;;;;;;;39.13;21.98;;;16.50;58.70;;;;;;4979952;28;20081;-59
2020/12/10 08:30:04;;;;;;;33.00;19.85;;;16.50;59.30;;;;;;5009622;28;20060;-59
2020/12/10 08:32:30;;;;;;;33.13;19.65;;;16.60;59.40;;;;;;5006505;28;20038;-58
2020/12/10 08:35:15;;;;;;;35.55;20.60;;;16.60;59.50;;;;;;4989770;28;20390;-57
2020/12/10 08:37:41;;;;;;;38.20;20.45;;;16.70;59.40;;;;;;5007419;28;20046;-59
2020/12/10 08:40:29;;;;;;;32.67;19.23;;;16.70;59.50;;;;;;4991605;28;20119;-59
2020/12/10 08:42:55;;;;;;;30.63;19.90;;;16.80;59.50;;;;;;4990220;28;20062;-59
2020/12/10 08:45:30;;;;;;;35.42;21.45;;;16.90;59.70;;;;;;4988297;28;20600;-59
2020/12/10 08:47:58;;;;;;;39.70;20.95;;;17.00;57.90;;;;;;5004552;28;20409;-59
2020/12/10 08:50:57;;;;;;;39.25;21.67;;;17.00;57.70;;;;;;4994073;28;20497;-59
2020/12/10 08:53:22;;;;;;;37.00;22.75;;;17.00;57.10;;;;;;4996463;28;20391;-61
2020/12/10 08:55:58;;;;;;;36.58;21.05;;;16.90;57.90;;;;;;4999577;28;20056;-59
2020/12/10 08:58:58;;;;;;;65.70;27.65;;;16.90;57.70;;;;;;4982666;28;20057;-61
2020/12/10 09:01:25;;;;;;;73.13;28.05;;;16.90;59.00;;;;;;4985741;28;20100;-60
2020/12/10 09:03:54;;;;;;;60.25;29.20;;;16.90;59.70;;;;;;4969033;28;20046;-57
2020/12/10 09:06:42;;;;;;;61.50;28.48;;;16.90;60.60;;;;;;4982244;28;20058;-58
2020/12/10 09:09:10;;;;;;;66.25;27.35;;;17.00;60.70;;;;;;4983549;28;20042;-59
2020/12/10 09:11:36;;;;;;;62.60;25.27;;;17.00;61.20;;;;;;4992843;28;20108;-55
2020/12/10 09:14:23;;;;;;;66.38;24.02;;;17.00;62.00;;;;;;4985588;28;20137;-58
2020/12/10 09:16:50;;;;;;;48.40;25.23;;;17.10;63.20;;;;;;4981304;28;20108;-54
2020/12/10 09:19:17;;;;;;;54.88;29.65;;;17.20;60.60;;;;;;5000895;28;20096;-55
2020/12/10 09:22:02;;;;;;;52.72;26.33;;;17.30;59.70;;;;;;4967346;28;20561;-58
2020/12/10 09:24:29;;;;;;;49.67;22.85;;;17.30;59.00;;;;;;4998398;28;20064;-54
2020/12/10 09:26:57;;;;;;;59.10;26.45;;;17.20;59.10;;;;;;5004625;28;20042;-58
2020/12/10 09:29:23;;;;;;;48.83;24.30;;;17.20;60.90;;;;;;4987350;28;20054;-57
2020/12/10 09:31:54;;;;;;;52.13;24.85;;;17.30;62.80;;;;;;5003908;28;20413;-54
2020/12/10 09:34:50;;;;;;;48.83;25.40;;;17.30;62.10;;;;;;4976456;28;20066;-56
2020/12/10 09:37:16;;;;;;;45.08;25.75;;;17.30;61.00;;;;;;4985660;28;20197;-50
2020/12/10 09:39:42;;;;;;;46.30;24.58;;;17.40;59.70;;;;;;5006258;28;20136;-53
2020/12/10 09:42:08;;;;;;;50.60;23.95;;;17.40;58.50;;;;;;5004636;28;20049;-56
2020/12/10 09:44:33;;;;;;;46.65;27.15;;;17.30;58.50;;;;;;5006127;28;20355;-57
2020/12/10 09:46:59;;;;;;;46.92;26.30;;;17.40;58.30;;;;;;4988880;28;20053;-58
2020/12/10 09:49:25;;;;;;;44.33;25.30;;;17.30;56.70;;;;;;5009026;28;20046;-57
2020/12/10 09:51:55;;;;;;;46.50;25.15;;;17.20;56.00;;;;;;5008865;28;20188;-56
2020/12/10 09:59:32;;;;;;;43.33;25.67;;;16.80;55.00;;;;;;4992726;28;20119;-58
2020/12/10 10:02:20;;;;;;;45.65;26.13;;;16.60;55.50;;;;;;4964712;28;20050;-58
2020/12/10 10:04:47;;;;;;;50.38;27.98;;;16.50;55.50;;;;;;4983680;28;20053;-58
2020/12/10 10:07:32;;;;;;;44.50;26.60;;;16.30;55.70;;;;;;4979039;28;20054;-58
2020/12/10 10:09:58;;;;;;;43.17;24.67;;;16.20;56.00;;;;;;4994943;28;20690;-58
2020/12/10 10:12:24;;;;;;;48.10;22.58;;;16.10;56.20;;;;;;4991034;28;20109;-52
2020/12/10 10:14:50;;;;;;;39.60;21.73;;;15.90;59.20;;;;;;4994740;28;20050;-58
2020/12/10 10:17:37;;;;;;;35.00;20.88;;;16.00;60.60;;;;;;4983780;28;20050;-57
2020/12/10 10:20:05;;;;;;;30.00;16.77;;;16.00;61.70;;;;;;4980362;28;20054;-58
2020/12/10 10:22:51;;;;;;;29.58;17.30;;;16.10;63.60;;;;;;4969047;28;20483;-58
2020/12/10 10:25:20;;;;;;;34.97;19.73;;;16.30;65.20;;;;;;4997567;28;20123;-59
2020/12/10 10:27:46;;;;;;;32.22;18.55;;;16.50;65.60;;;;;;4994497;28;20081;-59
2020/12/10 10:30:35;;;;;;;27.85;17.33;;;16.70;65.40;;;;;;4965912;28;20105;-59
2020/12/10 10:33:01;;;;;;;31.23;18.15;;;17.00;65.30;;;;;;5001304;28;20065;-60
2020/12/10 10:35:47;;;;;;;30.10;18.33;;;17.20;64.60;;;;;;4985937;28;20157;-53
2020/12/10 10:38:13;;;;;;;28.77;18.55;;;17.50;63.70;;;;;;5002403;28;20129;-57
2020/12/10 10:40:39;;;;;;;28.65;16.83;;;17.60;62.50;;;;;;5004914;28;20630;-61
2020/12/10 10:43:05;;;;;;;29.75;17.73;;;17.80;62.30;;;;;;5003763;28;20050;-61
2020/12/10 10:45:51;;;;;;;34.50;19.85;;;18.00;61.80;;;;;;4978375;28;20177;-61
2020/12/10 10:48:16;;;;;;;35.50;21.55;;;18.10;61.00;;;;;;4988581;28;20042;-62
2020/12/10 10:50:47;;;;;;;38.78;22.20;;;18.20;59.20;;;;;;4989983;28;20049;-61
2020/12/10 10:53:14;;;;;;;37.78;20.98;;;18.20;58.40;;;;;;5005866;28;20080;-61
2020/12/10 10:55:40;;;;;;;35.60;21.48;;;18.20;58.20;;;;;;5009524;28;20058;-61
2020/12/10 10:58:06;;;;;;;33.97;21.55;;;18.20;58.50;;;;;;4994969;28;20053;-53
2020/12/10 11:00:32;;;;;;;41.75;23.58;;;18.20;58.70;;;;;;5009834;28;20151;-53
2020/12/10 11:03:02;;;;;;;42.58;23.65;;;18.20;58.80;;;;;;5011793;28;20038;-57
2020/12/10 11:05:48;;;;;;;41.00;21.70;;;18.20;58.30;;;;;;4991460;28;20053;-60
2020/12/10 11:08:17;;;;;;;43.90;22.65;;;18.20;58.40;;;;;;5003214;28;20407;-60
2020/12/10 11:10:57;;;;;;;42.08;21.00;;;18.20;58.40;;;;;;5002312;28;20399;-57
2020/12/10 11:13:24;;;;;;;47.83;24.65;;;18.30;59.10;;;;;;4981400;28;20168;-57
2020/12/10 11:15:50;;;;;;;39.17;23.00;;;18.30;58.30;;;;;;4985249;28;20137;-57
2020/12/10 11:18:16;;;;;;;42.03;23.13;;;18.30;59.00;;;;;;5004029;28;20486;-57
2020/12/10 11:20:41;;;;;;;42.08;22.85;;;18.40;58.80;;;;;;5002298;28;20042;-55
2020/12/10 11:23:07;;;;;;;44.88;22.23;;;18.40;58.70;;;;;;5002218;28;20077;-59
2020/12/10 11:25:53;;;;;;;39.55;21.30;;;18.40;58.30;;;;;;4988099;28;20049;-57
2020/12/10 11:28:22;;;;;;;32.50;20.10;;;18.40;58.40;;;;;;4983428;28;20052;-57
2020/12/10 11:31:10;;;;;;;39.35;20.83;;;18.40;58.80;;;;;;4988392;28;20049;-57
2020/12/10 11:33:37;;;;;;;38.35;21.05;;;18.40;58.70;;;;;;4997635;28;20060;-59
2020/12/10 11:36:07;;;;;;;31.63;19.77;;;18.40;58.20;;;;;;4982833;28;20046;-58
2020/12/10 11:38:36;;;;;;;33.42;18.92;;;18.40;57.90;;;;;;4970624;28;20042;-58
2020/12/10 11:41:21;;;;;;;36.95;20.73;;;18.40;59.30;;;;;;4989351;28;20042;-58
2020/12/10 11:44:09;;;;;;;39.10;20.83;;;18.50;59.40;;;;;;4983909;28;20494;-56
2020/12/10 11:46:35;;;;;;;38.30;21.13;;;18.50;59.50;;;;;;4984586;28;20050;-58
2020/12/10 11:49:21;;;;;;;42.45;21.92;;;18.50;59.50;;;;;;4985817;28;20552;-57
2020/12/10 11:51:52;;;;;;;42.15;22.65;;;18.50;59.40;;;;;;4999514;28;20050;-57
2020/12/10 11:54:17;;;;;;;45.53;22.10;;;18.50;60.00;;;;;;4988167;28;20524;-56
2020/12/10 11:57:24;;;;;;;43.20;21.17;;;18.40;59.50;;;;;;4990468;28;20061;-59
2020/12/10 11:59:51;;;;;;;55.05;30.25;;;18.40;60.00;;;;;;5002914;28;20061;-58
2020/12/10 12:02:16;;;;;;;43.58;22.73;;;18.50;60.30;;;;;;4963731;28;20083;-57
2020/12/10 12:04:42;;;;;;;40.15;19.70;;;18.50;60.40;;;;;;4996452;28;20054;-58
